Time;durP1;ratioP1;P1;durP2;ratioP2;P2;SDS_P1;SDS_P2;PMS_P1;PMS_P2;Temp;Humidity;BMP_temperature;BMP_pressure;BME280_temperature;BME280_humidity;BME280_pressure;Samples;Min_cycle;Max_cycle;Signal;HPM_P1;HPM_P2
2023/10/06 00:01:40;;;;;;;7.40;6.70;;;17.60;99.90;;;;;;5097484;28;20201;-72
2023/10/06 00:04:09;;;;;;;6.32;5.82;;;17.60;99.90;;;;;;5097969;28;20820;-73
2023/10/06 00:06:37;;;;;;;7.30;6.63;;;17.60;99.90;;;;;;5103421;28;20193;-72
2023/10/06 00:09:09;;;;;;;7.25;6.65;;;17.60;99.90;;;;;;5096627;28;20319;-73
2023/10/06 00:11:37;;;;;;;8.05;7.25;;;17.60;99.90;;;;;;5100426;28;20237;-72
2023/10/06 00:14:09;;;;;;;8.13;7.20;;;17.60;99.90;;;;;;5094902;28;20220;-73
2023/10/06 00:16:40;;;;;;;7.40;6.80;;;17.50;99.90;;;;;;5099061;28;20589;-74
2023/10/06 00:19:26;;;;;;;7.95;7.15;;;17.50;99.90;;;;;;5100786;28;20304;-72
2023/10/06 00:22:02;;;;;;;7.38;6.68;;;17.50;99.90;;;;;;5100623;28;20227;-72
2023/10/06 00:24:31;;;;;;;8.23;7.43;;;17.40;99.90;;;;;;5097877;27;20869;-74
2023/10/06 00:26:58;;;;;;;7.45;6.75;;;17.40;99.90;;;;;;5099042;28;20185;-72
2023/10/06 00:29:28;;;;;;;8.10;7.30;;;17.40;99.90;;;;;;5101080;28;20300;-72
2023/10/06 00:32:00;;;;;;;7.25;6.60;;;17.40;99.90;;;;;;5099631;28;20272;-72
2023/10/06 00:34:31;;;;;;;7.20;6.60;;;17.50;99.90;;;;;;5100141;28;20284;-72
2023/10/06 00:37:01;;;;;;;8.35;7.45;;;17.70;99.90;;;;;;5101986;27;20267;-72
2023/10/06 00:39:30;;;;;;;7.90;7.30;;;17.80;99.90;;;;;;5107280;28;20750;-72
2023/10/06 00:42:04;;;;;;;7.35;6.65;;;17.90;99.90;;;;;;5103262;28;20193;-71
2023/10/06 00:44:31;;;;;;;7.45;6.85;;;18.00;99.90;;;;;;5102395;28;20224;-71
2023/10/06 00:46:59;;;;;;;8.15;7.45;;;18.00;99.90;;;;;;5100654;27;20198;-72
2023/10/06 00:49:28;;;;;;;8.25;7.55;;;18.10;99.90;;;;;;5100718;28;20256;-72
2023/10/06 00:51:59;;;;;;;7.70;7.00;;;18.10;99.90;;;;;;5100276;28;20212;-71
2023/10/06 00:54:26;;;;;;;7.93;7.22;;;18.20;99.90;;;;;;5099686;27;20205;-72
2023/10/06 00:56:57;;;;;;;8.05;7.22;;;18.20;99.90;;;;;;5100682;28;20217;-72
2023/10/06 00:59:24;;;;;;;7.90;7.20;;;18.20;99.90;;;;;;5118746;28;20299;-74
2023/10/06 01:01:52;;;;;;;8.13;7.32;;;18.20;99.90;;;;;;5113543;28;20231;-73
2023/10/06 01:04:24;;;;;;;7.70;6.90;;;18.30;99.90;;;;;;5107799;28;20205;-74
2023/10/06 01:06:54;;;;;;;7.78;7.07;;;18.30;99.90;;;;;;5101874;28;20232;-73
2023/10/06 01:09:30;;;;;;;8.48;7.72;;;18.30;99.90;;;;;;5099906;28;20226;-71
2023/10/06 01:11:58;;;;;;;7.32;6.63;;;18.40;99.90;;;;;;5095314;28;20670;-73
2023/10/06 01:14:27;;;;;;;7.95;7.25;;;18.30;99.90;;;;;;5095466;27;20220;-73
2023/10/06 01:17:02;;;;;;;7.30;6.70;;;18.30;99.90;;;;;;5095935;27;20768;-74
2023/10/06 01:19:33;;;;;;;7.43;6.72;;;18.30;99.90;;;;;;5098146;28;20220;-73
2023/10/06 01:22:07;;;;;;;8.00;7.25;;;18.30;99.90;;;;;;5099535;28;20193;-74
2023/10/06 01:24:35;;;;;;;7.50;6.80;;;18.30;99.90;;;;;;5097998;28;20204;-74
2023/10/06 01:27:06;;;;;;;8.25;7.55;;;18.30;99.90;;;;;;5100088;27;20197;-73
2023/10/06 01:29:34;;;;;;;7.18;6.57;;;18.30;99.90;;;;;;5099338;28;20223;-73
2023/10/06 01:32:05;;;;;;;7.68;7.07;;;18.30;99.90;;;;;;5111120;28;20212;-75
2023/10/06 01:34:37;;;;;;;7.85;7.15;;;18.30;99.90;;;;;;5111104;27;20223;-73
2023/10/06 01:37:04;;;;;;;7.45;6.78;;;18.20;99.90;;;;;;5097954;27;20795;-73
2023/10/06 01:39:35;;;;;;;7.07;6.47;;;18.20;99.90;;;;;;5098178;28;20216;-73
2023/10/06 01:42:07;;;;;;;7.07;6.35;;;18.20;99.90;;;;;;5094133;28;20852;-73
2023/10/06 01:44:34;;;;;;;7.90;7.18;;;18.20;99.90;;;;;;5094661;28;20255;-74
2023/10/06 01:47:04;;;;;;;7.57;6.88;;;18.20;99.90;;;;;;5098742;28;20309;-73
2023/10/06 01:49:33;;;;;;;7.00;6.38;;;18.20;99.90;;;;;;5095540;28;20236;-73
2023/10/06 01:52:02;;;;;;;7.68;6.97;;;18.20;99.90;;;;;;5100617;28;20790;-73
2023/10/06 01:54:34;;;;;;;7.35;6.75;;;18.20;99.90;;;;;;5096576;28;20212;-72
2023/10/06 01:57:06;;;;;;;8.00;7.30;;;18.10;99.90;;;;;;5101434;28;20441;-73
2023/10/06 01:59:33;;;;;;;7.75;7.05;;;18.20;99.90;;;;;;5095008;28;20208;-73
2023/10/06 02:02:01;;;;;;;8.52;7.72;;;18.10;99.90;;;;;;5094577;28;20233;-73
2023/10/06 02:04:38;;;;;;;7.75;7.05;;;18.10;99.90;;;;;;5089733;28;20216;-73
2023/10/06 02:07:09;;;;;;;7.72;7.13;;;18.10;99.90;;;;;;5097469;28;20254;-73
2023/10/06 02:09:37;;;;;;;8.15;7.45;;;18.10;99.90;;;;;;5095525;28;20245;-73
2023/10/06 02:12:06;;;;;;;8.68;7.78;;;18.10;99.90;;;;;;5099120;28;20845;-73
2023/10/06 02:14:33;;;;;;;7.38;6.68;;;18.10;99.90;;;;;;5097290;28;20343;-72
2023/10/06 02:17:05;;;;;;;7.75;7.00;;;18.10;99.90;;;;;;5097943;28;20224;-73
2023/10/06 02:19:34;;;;;;;7.70;7.00;;;18.00;99.90;;;;;;5095539;28;20225;-72
2023/10/06 02:22:05;;;;;;;7.63;6.95;;;18.00;99.90;;;;;;5093228;28;20553;-73
2023/10/06 02:24:32;;;;;;;8.13;7.43;;;18.00;99.90;;;;;;5096362;28;20193;-73
2023/10/06 02:27:01;;;;;;;8.50;7.70;;;18.00;99.90;;;;;;5096377;28;20735;-74
2023/10/06 02:29:30;;;;;;;7.32;6.72;;;18.00;99.90;;;;;;5096090;28;20227;-73
2023/10/06 02:32:01;;;;;;;8.45;7.60;;;18.00;99.90;;;;;;5096141;28;20220;-71
2023/10/06 02:34:35;;;;;;;7.35;6.75;;;17.90;99.90;;;;;;5097323;28;20192;-73
2023/10/06 02:37:04;;;;;;;7.22;6.60;;;17.90;99.90;;;;;;5096756;28;20246;-71
2023/10/06 02:39:34;;;;;;;7.32;6.72;;;17.90;99.90;;;;;;5096553;28;20893;-71
2023/10/06 02:42:07;;;;;;;7.93;7.22;;;17.90;99.90;;;;;;5098337;28;20219;-73
2023/10/06 02:44:38;;;;;;;8.07;7.32;;;17.80;99.90;;;;;;5096005;28;21038;-73
2023/10/06 02:47:09;;;;;;;7.70;7.00;;;17.80;99.90;;;;;;5096872;28;20209;-73
2023/10/06 02:49:37;;;;;;;7.78;7.07;;;17.80;99.90;;;;;;5095416;28;20225;-73
2023/10/06 02:52:13;;;;;;;7.00;6.30;;;17.80;99.90;;;;;;5097999;28;20197;-73
2023/10/06 02:54:45;;;;;;;8.40;7.60;;;17.70;99.90;;;;;;5097798;28;20208;-73
2023/10/06 02:57:12;;;;;;;7.82;7.13;;;17.70;99.90;;;;;;5098242;28;20694;-72
2023/10/06 02:59:43;;;;;;;7.68;6.97;;;17.70;99.90;;;;;;5097980;28;20221;-72
2023/10/06 03:02:15;;;;;;;8.40;7.55;;;17.70;99.90;;;;;;5099634;27;20193;-72
2023/10/06 03:04:43;;;;;;;7.80;7.10;;;17.70;99.90;;;;;;5104292;27;20599;-73
2023/10/06 03:07:14;;;;;;;7.10;6.50;;;17.70;99.90;;;;;;5103463;28;20239;-73
2023/10/06 03:09:45;;;;;;;7.55;6.88;;;17.60;99.90;;;;;;5096835;28;20270;-73
2023/10/06 03:12:15;;;;;;;7.78;7.07;;;17.60;99.90;;;;;;5103796;27;20197;-73
2023/10/06 03:14:44;;;;;;;7.85;7.15;;;17.70;99.90;;;;;;5101193;28;20225;-72
2023/10/06 03:17:13;;;;;;;7.88;7.18;;;17.70;99.90;;;;;;5103238;28;20221;-75
2023/10/06 03:19:41;;;;;;;7.25;6.65;;;17.70;99.90;;;;;;5098277;28;20315;-72
2023/10/06 03:22:10;;;;;;;7.55;6.85;;;17.70;99.90;;;;;;5100854;28;20320;-73
2023/10/06 03:24:45;;;;;;;8.18;7.38;;;17.70;99.90;;;;;;5098945;28;20197;-72
2023/10/06 03:27:14;;;;;;;7.43;6.72;;;17.70;99.90;;;;;;5103168;28;20900;-71
2023/10/06 03:29:51;;;;;;;8.13;7.32;;;17.50;99.90;;;;;;5100693;28;20319;-73
2023/10/06 03:32:27;;;;;;;7.15;6.55;;;17.40;99.90;;;;;;5097938;28;20284;-72
2023/10/06 03:34:54;;;;;;;7.85;7.15;;;17.40;99.90;;;;;;5124608;27;20688;-72
2023/10/06 03:37:34;;;;;;;7.40;6.80;;;17.50;99.90;;;;;;5107585;27;20220;-72
2023/10/06 03:40:19;;;;;;;7.40;6.70;;;17.50;99.90;;;;;;5101773;27;20221;-72
2023/10/06 03:42:47;;;;;;;8.15;7.35;;;17.50;99.90;;;;;;5096305;27;20197;-74
2023/10/06 03:45:26;;;;;;;7.65;6.95;;;17.60;99.90;;;;;;5099233;28;20193;-73
2023/10/06 03:47:54;;;;;;;7.40;6.80;;;17.60;99.90;;;;;;5098694;28;20189;-73
2023/10/06 03:50:24;;;;;;;8.07;7.13;;;17.60;99.90;;;;;;5101699;28;20204;-72
2023/10/06 03:52:51;;;;;;;7.40;6.80;;;17.60;99.90;;;;;;5095438;27;20233;-71
2023/10/06 03:55:18;;;;;;;7.53;6.82;;;17.60;99.90;;;;;;5099438;28;20266;-71
2023/10/06 03:57:46;;;;;;;7.07;6.47;;;17.60;99.90;;;;;;5096168;28;20216;-72
2023/10/06 04:00:19;;;;;;;8.35;6.53;;;17.50;99.90;;;;;;5098904;28;20311;-73
2023/10/06 04:02:48;;;;;;;7.40;6.75;;;17.50;99.90;;;;;;5097688;28;20201;-74
2023/10/06 04:05:18;;;;;;;6.72;6.18;;;17.40;99.90;;;;;;5101028;28;20200;-74
2023/10/06 04:07:46;;;;;;;8.25;7.43;;;17.30;99.90;;;;;;5096462;28;20205;-74
2023/10/06 04:10:15;;;;;;;6.93;6.22;;;17.20;99.90;;;;;;5101297;28;20225;-74
2023/10/06 04:12:43;;;;;;;7.63;6.93;;;17.20;99.90;;;;;;5099644;27;20263;-74
2023/10/06 04:15:14;;;;;;;7.43;6.72;;;17.10;99.90;;;;;;5099159;28;20240;-72
2023/10/06 04:17:43;;;;;;;7.28;6.57;;;17.10;99.90;;;;;;5100087;28;20246;-73
2023/10/06 04:20:14;;;;;;;7.55;6.70;;;17.00;99.90;;;;;;5098712;28;20297;-73
2023/10/06 04:22:42;;;;;;;7.50;6.90;;;16.90;99.90;;;;;;5103466;27;20205;-74
2023/10/06 04:25:11;;;;;;;6.78;6.18;;;16.90;99.90;;;;;;5113361;27;20207;-74
2023/10/06 04:27:39;;;;;;;6.95;6.30;;;16.80;99.90;;;;;;5117238;28;20189;-75
2023/10/06 04:30:11;;;;;;;8.90;7.50;;;16.90;99.90;;;;;;5105613;28;20221;-73
2023/10/06 04:32:39;;;;;;;7.55;6.85;;;16.90;99.90;;;;;;5096942;27;20428;-73
2023/10/06 04:35:19;;;;;;;7.47;6.78;;;16.90;99.90;;;;;;5095798;28;20197;-74
2023/10/06 04:37:48;;;;;;;6.97;6.38;;;16.90;99.90;;;;;;5100018;28;20213;-73
2023/10/06 04:40:16;;;;;;;7.25;6.55;;;16.90;99.90;;;;;;5101025;27;20316;-73
2023/10/06 04:42:45;;;;;;;6.75;6.15;;;16.80;99.90;;;;;;5094578;28;20210;-72
2023/10/06 04:45:12;;;;;;;7.32;6.63;;;16.80;99.90;;;;;;5101401;28;20218;-72
2023/10/06 04:47:40;;;;;;;6.25;5.75;;;16.90;99.90;;;;;;5099321;28;20300;-73
2023/10/06 04:50:11;;;;;;;6.72;6.13;;;16.90;99.90;;;;;;5098921;28;20217;-71
2023/10/06 04:52:38;;;;;;;6.93;6.22;;;16.90;99.90;;;;;;5099347;28;20255;-72
2023/10/06 04:55:11;;;;;;;7.72;6.90;;;16.90;99.90;;;;;;5100639;27;20197;-72
2023/10/06 04:57:38;;;;;;;6.95;6.32;;;16.80;99.90;;;;;;5096496;27;20221;-74
2023/10/06 05:00:13;;;;;;;6.78;6.18;;;16.70;99.90;;;;;;5098331;28;20258;-72
2023/10/06 05:02:42;;;;;;;6.95;6.35;;;16.70;99.90;;;;;;5098901;28;20204;-73
2023/10/06 05:05:12;;;;;;;6.63;6.13;;;16.70;99.90;;;;;;5099022;28;20229;-72
2023/10/06 05:07:39;;;;;;;7.03;6.43;;;16.70;99.90;;;;;;5098489;28;20200;-72
2023/10/06 05:10:10;;;;;;;6.38;5.78;;;16.70;99.90;;;;;;5095383;28;20241;-74
2023/10/06 05:12:38;;;;;;;7.40;6.13;;;16.60;99.90;;;;;;5100338;28;20210;-73
2023/10/06 05:15:14;;;;;;;7.40;6.35;;;16.70;99.90;;;;;;5099289;28;20201;-73
2023/10/06 05:17:41;;;;;;;8.13;7.28;;;16.70;99.90;;;;;;5095581;28;20212;-71
2023/10/06 05:20:19;;;;;;;7.43;6.72;;;16.80;99.90;;;;;;5094589;27;20304;-72
2023/10/06 05:22:50;;;;;;;7.63;6.80;;;16.80;99.90;;;;;;5094512;27;20571;-75
2023/10/06 05:25:19;;;;;;;6.57;5.95;;;16.90;99.90;;;;;;5090178;27;20220;-73
2023/10/06 05:27:47;;;;;;;7.30;6.60;;;16.90;99.90;;;;;;5101609;28;20240;-72
2023/10/06 05:30:14;;;;;;;6.93;6.32;;;16.80;99.90;;;;;;5097846;28;20225;-71
2023/10/06 05:32:42;;;;;;;7.38;6.78;;;16.70;99.90;;;;;;5098038;28;20193;-72
2023/10/06 05:35:13;;;;;;;7.15;6.55;;;16.60;99.90;;;;;;5118975;28;20185;-74
2023/10/06 05:37:44;;;;;;;7.10;6.43;;;16.60;99.90;;;;;;5110526;28;20747;-73
2023/10/06 05:40:16;;;;;;;7.30;6.60;;;16.60;99.90;;;;;;5099084;28;20303;-72
2023/10/06 05:42:43;;;;;;;6.70;6.10;;;16.50;99.90;;;;;;5095800;28;20231;-72
2023/10/06 05:45:15;;;;;;;7.20;6.53;;;16.50;99.90;;;;;;5097372;28;20255;-73
2023/10/06 05:47:45;;;;;;;6.72;6.13;;;16.50;99.90;;;;;;5098016;28;20219;-73
2023/10/06 05:50:12;;;;;;;6.90;6.32;;;16.50;99.90;;;;;;5102697;28;20307;-72
2023/10/06 05:52:40;;;;;;;7.03;6.38;;;16.50;99.90;;;;;;5093692;28;20711;-72
2023/10/06 05:55:09;;;;;;;6.63;6.03;;;16.50;99.90;;;;;;5101443;28;20197;-71
2023/10/06 05:57:43;;;;;;;6.20;5.63;;;16.50;99.90;;;;;;5096326;28;20220;-74
2023/10/06 06:00:18;;;;;;;6.55;5.90;;;16.40;99.90;;;;;;5098429;28;20222;-73
2023/10/06 06:02:47;;;;;;;6.55;5.95;;;16.40;99.90;;;;;;5095986;28;20225;-74
2023/10/06 06:05:15;;;;;;;5.95;5.30;;;16.50;99.90;;;;;;5099620;28;20294;-72
2023/10/06 06:07:43;;;;;;;5.90;5.40;;;16.50;99.90;;;;;;5098950;28;20789;-73
2023/10/06 06:10:13;;;;;;;6.40;5.80;;;16.50;99.90;;;;;;5096916;28;20232;-73
2023/10/06 06:12:41;;;;;;;5.88;5.30;;;16.50;99.90;;;;;;5098606;28;20877;-73
2023/10/06 06:15:11;;;;;;;6.25;5.65;;;16.60;99.90;;;;;;5096939;28;20265;-73
2023/10/06 06:17:40;;;;;;;6.47;5.72;;;16.70;99.90;;;;;;5100694;28;20214;-73
2023/10/06 06:20:09;;;;;;;6.30;5.68;;;16.70;99.90;;;;;;5093619;28;20228;-72
2023/10/06 06:22:37;;;;;;;5.88;5.38;;;16.80;99.90;;;;;;5100422;28;20200;-72
2023/10/06 06:25:06;;;;;;;5.70;5.20;;;16.90;99.90;;;;;;5097556;28;20200;-74
2023/10/06 06:27:33;;;;;;;5.88;5.15;;;16.90;99.90;;;;;;5099940;28;20671;-73
2023/10/06 06:30:01;;;;;;;6.07;5.47;;;17.00;99.90;;;;;;5095155;28;20809;-73
2023/10/06 06:32:29;;;;;;;6.22;5.68;;;17.40;99.90;;;;;;5105960;28;20631;-72
2023/10/06 06:34:56;;;;;;;5.57;5.07;;;17.90;99.90;;;;;;5100892;28;20232;-73
2023/10/06 06:37:23;;;;;;;6.15;5.65;;;18.30;99.90;;;;;;5101452;28;20197;-73
2023/10/06 06:39:50;;;;;;;6.00;5.50;;;18.50;99.90;;;;;;5103821;28;20240;-73
2023/10/06 06:42:18;;;;;;;6.30;5.63;;;18.80;99.90;;;;;;5102269;28;20282;-72
2023/10/06 06:44:47;;;;;;;5.65;5.15;;;19.10;99.90;;;;;;5100900;28;20244;-73
2023/10/06 06:47:17;;;;;;;5.95;5.38;;;19.30;99.90;;;;;;5098296;28;20207;-74
2023/10/06 06:49:44;;;;;;;5.75;5.25;;;19.50;99.90;;;;;;5101424;28;20231;-72
2023/10/06 06:52:12;;;;;;;5.82;5.32;;;19.60;99.90;;;;;;5102524;28;20284;-72
2023/10/06 06:54:46;;;;;;;5.35;4.85;;;19.80;99.90;;;;;;5102609;28;20283;-75
2023/10/06 06:57:15;;;;;;;5.40;4.78;;;20.00;99.90;;;;;;5103367;28;20204;-73
2023/10/06 06:59:44;;;;;;;6.32;4.82;;;20.30;99.90;;;;;;5102720;28;20317;-73
2023/10/06 07:02:11;;;;;;;6.40;5.50;;;20.50;99.90;;;;;;5101759;28;20197;-72
2023/10/06 07:04:40;;;;;;;5.85;5.25;;;20.50;99.90;;;;;;5102298;28;20232;-71
2023/10/06 07:07:07;;;;;;;5.50;5.00;;;20.50;99.90;;;;;;5101676;28;20207;-72
2023/10/06 07:09:34;;;;;;;5.50;5.00;;;20.60;99.90;;;;;;5098369;28;20252;-72
2023/10/06 07:12:01;;;;;;;6.15;4.95;;;20.80;99.90;;;;;;5098009;28;20660;-73
2023/10/06 07:14:28;;;;;;;6.05;5.45;;;21.10;99.90;;;;;;5097421;28;20255;-73
2023/10/06 07:16:56;;;;;;;6.03;5.25;;;21.40;99.90;;;;;;5102240;27;20201;-72
2023/10/06 07:19:24;;;;;;;6.70;5.28;;;21.60;99.90;;;;;;5099284;27;20765;-71
2023/10/06 07:21:53;;;;;;;6.07;5.38;;;21.60;99.90;;;;;;5101163;28;20205;-72
2023/10/06 07:24:20;;;;;;;5.57;5.03;;;21.50;99.90;;;;;;5097229;28;20253;-73
2023/10/06 07:26:46;;;;;;;5.55;5.00;;;21.60;99.90;;;;;;5098938;28;20693;-73
2023/10/06 07:29:14;;;;;;;5.30;4.80;;;21.80;99.90;;;;;;5100603;28;20270;-72
2023/10/06 07:31:42;;;;;;;5.72;4.97;;;21.90;99.90;;;;;;5101985;27;20826;-72
2023/10/06 07:34:08;;;;;;;5.50;5.00;;;22.00;99.90;;;;;;5103080;27;20243;-72
2023/10/06 07:36:37;;;;;;;5.93;5.30;;;22.00;99.90;;;;;;5111901;27;20193;-75
2023/10/06 07:39:08;;;;;;;5.45;4.95;;;22.00;99.90;;;;;;5113206;28;20234;-73
2023/10/06 07:41:36;;;;;;;5.35;4.80;;;22.10;99.90;;;;;;5098522;27;20821;-73
2023/10/06 07:44:05;;;;;;;6.57;5.10;;;22.20;99.90;;;;;;5099324;27;20633;-73
2023/10/06 07:46:33;;;;;;;6.57;5.50;;;22.20;99.90;;;;;;5098026;28;20201;-73
2023/10/06 07:49:01;;;;;;;6.00;5.40;;;22.40;99.90;;;;;;5102836;27;20692;-75
2023/10/06 07:51:28;;;;;;;6.72;5.28;;;22.70;99.90;;;;;;5117807;28;20223;-74
2023/10/06 07:53:59;;;;;;;5.82;5.32;;;22.90;99.90;;;;;;5113103;28;20229;-73
2023/10/06 07:56:27;;;;;;;6.43;5.75;;;23.10;99.90;;;;;;5109183;28;20880;-74
2023/10/06 07:58:54;;;;;;;5.57;5.07;;;23.00;99.90;;;;;;5101550;27;20271;-73
2023/10/06 08:01:21;;;;;;;7.65;5.20;;;22.80;99.90;;;;;;5101285;28;20258;-73
2023/10/06 08:03:48;;;;;;;6.03;5.35;;;22.70;99.90;;;;;;5102972;28;20193;-74
2023/10/06 08:06:16;;;;;;;6.07;5.47;;;22.60;99.90;;;;;;5101905;28;20251;-74
2023/10/06 08:08:43;;;;;;;6.55;5.40;;;22.50;99.90;;;;;;5100758;28;20296;-74
2023/10/06 08:11:13;;;;;;;5.80;5.30;;;22.40;99.90;;;;;;5097023;27;20208;-74
2023/10/06 08:13:42;;;;;;;5.70;5.20;;;22.40;99.90;;;;;;5101963;27;20292;-74
2023/10/06 08:16:11;;;;;;;5.93;5.32;;;22.50;99.90;;;;;;5100774;27;20193;-74
2023/10/06 08:18:39;;;;;;;5.70;5.10;;;22.60;99.90;;;;;;5097397;28;20217;-75
2023/10/06 08:21:06;;;;;;;5.57;4.60;;;22.50;99.90;;;;;;5106421;27;20206;-75
2023/10/06 08:23:35;;;;;;;5.75;5.25;;;22.70;99.90;;;;;;5102116;28;20255;-75
2023/10/06 08:26:07;;;;;;;5.90;5.30;;;22.70;99.90;;;;;;5102086;28;20649;-74
2023/10/06 08:28:34;;;;;;;5.70;5.20;;;22.50;99.90;;;;;;5100208;28;20216;-74
2023/10/06 08:31:03;;;;;;;5.57;5.07;;;22.40;99.90;;;;;;5106043;28;20516;-77
2023/10/06 08:33:30;;;;;;;5.13;4.63;;;22.40;99.90;;;;;;5102886;28;20201;-75
2023/10/06 08:35:58;;;;;;;5.32;4.82;;;22.40;99.90;;;;;;5110288;28;20197;-74
2023/10/06 08:38:25;;;;;;;6.20;4.82;;;22.50;99.90;;;;;;5104674;28;20217;-75
2023/10/06 08:40:58;;;;;;;6.93;5.47;;;22.50;99.90;;;;;;5100719;28;20827;-74
2023/10/06 08:43:27;;;;;;;5.63;4.88;;;22.40;99.90;;;;;;5107198;27;20196;-74
2023/10/06 08:45:59;;;;;;;5.88;5.10;;;22.20;99.90;;;;;;5103025;28;20200;-77
2023/10/06 08:48:31;;;;;;;6.40;5.47;;;22.30;99.90;;;;;;5109419;28;20795;-76
2023/10/06 08:51:03;;;;;;;5.70;5.07;;;22.60;99.90;;;;;;5108017;28;20278;-75
2023/10/06 08:53:32;;;;;;;5.65;5.07;;;22.80;99.90;;;;;;5106850;28;20777;-75
2023/10/06 08:55:59;;;;;;;6.75;5.20;;;23.10;99.90;;;;;;5103502;28;20786;-76
2023/10/06 08:58:27;;;;;;;6.05;5.30;;;23.10;99.90;;;;;;5100291;27;20213;-74
2023/10/06 09:00:56;;;;;;;5.40;4.90;;;23.10;99.90;;;;;;5105907;28;20204;-76
2023/10/06 09:03:23;;;;;;;6.07;5.30;;;23.30;99.90;;;;;;5104588;28;20224;-75
2023/10/06 09:05:52;;;;;;;6.70;5.05;;;23.40;99.90;;;;;;5101792;28;20204;-75
2023/10/06 09:08:19;;;;;;;5.93;4.63;;;23.30;99.90;;;;;;5097625;28;20252;-75
2023/10/06 09:10:50;;;;;;;5.63;5.07;;;23.60;99.90;;;;;;5096298;28;20204;-74
2023/10/06 09:13:20;;;;;;;5.53;4.72;;;23.70;99.90;;;;;;5088230;27;20598;-74
2023/10/06 09:15:59;;;;;;;8.52;5.45;;;23.80;99.90;;;;;;5092698;27;20789;-75
2023/10/06 09:18:28;;;;;;;6.15;5.43;;;24.30;99.90;;;;;;5091476;28;20220;-74
2023/10/06 09:20:57;;;;;;;6.40;5.25;;;24.40;99.90;;;;;;5087449;27;20340;-74
2023/10/06 09:23:31;;;;;;;5.93;5.00;;;24.40;99.90;;;;;;5087114;27;20212;-73
2023/10/06 09:26:00;;;;;;;7.13;5.78;;;24.40;99.90;;;;;;5087611;28;20246;-74
2023/10/06 09:28:27;;;;;;;5.68;5.18;;;24.40;99.90;;;;;;5093306;28;20235;-73
2023/10/06 09:31:00;;;;;;;6.25;5.43;;;24.20;99.90;;;;;;5087524;28;20205;-74
2023/10/06 09:33:28;;;;;;;5.40;4.95;;;24.20;99.90;;;;;;5085169;28;20215;-73
2023/10/06 09:36:06;;;;;;;6.15;5.55;;;24.50;99.90;;;;;;5091270;28;20221;-73
2023/10/06 09:38:34;;;;;;;5.60;5.03;;;24.70;99.90;;;;;;5105346;28;20224;-73
2023/10/06 09:41:01;;;;;;;5.75;5.13;;;24.60;99.90;;;;;;5106574;28;20201;-72
2023/10/06 09:43:34;;;;;;;5.30;4.80;;;24.70;99.90;;;;;;5094107;28;20212;-73
2023/10/06 09:46:07;;;;;;;5.97;5.38;;;25.10;99.90;;;;;;5092802;28;20288;-73
2023/10/06 09:48:37;;;;;;;5.55;4.88;;;25.20;99.90;;;;;;5091749;28;20802;-73
2023/10/06 09:51:08;;;;;;;6.63;5.30;;;25.20;99.90;;;;;;5090181;28;20201;-73
2023/10/06 09:53:39;;;;;;;7.05;5.05;;;25.40;99.90;;;;;;5093407;28;20290;-74
2023/10/06 09:56:11;;;;;;;6.30;5.07;;;25.40;99.90;;;;;;5092578;28;20284;-73
2023/10/06 09:58:40;;;;;;;5.30;4.80;;;25.40;99.90;;;;;;5095142;28;20232;-73
2023/10/06 10:01:10;;;;;;;6.13;5.53;;;25.40;99.90;;;;;;5091772;28;20193;-74
2023/10/06 10:03:37;;;;;;;6.82;5.63;;;25.20;99.90;;;;;;5094526;28;20655;-74
2023/10/06 10:06:08;;;;;;;5.25;4.75;;;25.20;99.90;;;;;;5085678;28;20232;-72
2023/10/06 10:08:36;;;;;;;6.03;5.20;;;25.00;99.90;;;;;;5087572;28;20768;-74
2023/10/06 10:11:14;;;;;;;5.85;5.07;;;24.90;99.90;;;;;;5087907;28;20283;-73
2023/10/06 10:14:24;;;;;;;6.88;5.60;;;25.00;99.90;;;;;;5087239;28;20204;-73
2023/10/06 10:17:07;;;;;;;4.93;4.43;;;25.00;99.90;;;;;;5088681;28;20210;-73
2023/10/06 10:19:36;;;;;;;4.75;4.30;;;24.90;99.90;;;;;;5089698;28;21057;-73
2023/10/06 10:22:05;;;;;;;7.85;5.20;;;24.90;99.90;;;;;;5091085;28;20603;-74
2023/10/06 10:24:36;;;;;;;5.88;5.38;;;25.10;99.90;;;;;;5086762;28;20201;-74
2023/10/06 10:27:13;;;;;;;5.78;5.28;;;25.00;99.90;;;;;;5089348;28;20204;-74
2023/10/06 10:29:41;;;;;;;5.43;4.90;;;25.20;99.90;;;;;;5089347;28;20923;-73
2023/10/06 10:32:15;;;;;;;6.03;4.88;;;25.30;99.90;;;;;;5084549;28;20278;-73
2023/10/06 10:35:13;;;;;;;6.93;5.10;;;25.40;99.90;;;;;;5089001;28;20569;-74
2023/10/06 10:37:58;;;;;;;8.38;5.63;;;25.30;99.90;;;;;;5090424;28;20200;-74
2023/10/06 10:40:26;;;;;;;5.53;5.03;;;25.30;99.90;;;;;;5089027;28;20304;-74
2023/10/06 10:42:57;;;;;;;4.70;4.30;;;25.30;99.90;;;;;;5089305;28;20232;-74
2023/10/06 10:45:34;;;;;;;6.03;4.53;;;25.40;99.90;;;;;;5097312;28;20197;-73
2023/10/06 10:48:04;;;;;;;5.55;5.05;;;25.60;99.90;;;;;;5094455;28;20207;-73
2023/10/06 10:51:05;;;;;;;5.80;5.25;;;25.50;99.90;;;;;;5099389;28;20239;-73
2023/10/06 10:53:36;;;;;;;5.80;4.85;;;25.50;99.90;;;;;;5013249;28;20204;-73
2023/10/06 10:56:03;;;;;;;5.13;4.63;;;25.30;99.90;;;;;;5077375;28;20205;-73
2023/10/06 10:58:57;;;;;;;6.53;5.72;;;25.20;99.90;;;;;;5095765;28;20282;-70
2023/10/06 11:01:31;;;;;;;5.45;4.95;;;25.20;99.90;;;;;;5045749;28;20193;-72
2023/10/06 11:04:35;;;;;;;7.13;5.10;;;25.40;99.90;;;;;;5098924;28;20197;-71
2023/10/06 11:07:12;;;;;;;6.07;5.47;;;25.50;99.90;;;;;;5098287;28;20972;-72
2023/10/06 11:09:41;;;;;;;6.50;5.38;;;25.70;99.90;;;;;;5099145;28;20269;-72
2023/10/06 11:12:23;;;;;;;7.00;5.28;;;25.80;99.90;;;;;;5100774;28;20204;-72
2023/10/06 11:14:51;;;;;;;5.53;4.97;;;26.00;99.90;;;;;;5098654;28;20197;-72
2023/10/06 11:17:22;;;;;;;5.85;5.35;;;26.00;99.90;;;;;;5098304;28;20204;-72
2023/10/06 11:20:01;;;;;;;5.88;4.75;;;25.90;99.90;;;;;;5104675;27;20236;-70
2023/10/06 11:22:28;;;;;;;7.90;5.85;;;25.70;99.90;;;;;;5103655;28;20609;-72
2023/10/06 11:25:03;;;;;;;5.63;5.10;;;25.50;99.90;;;;;;5101673;27;20283;-71
2023/10/06 11:27:30;;;;;;;6.75;5.20;;;25.40;99.90;;;;;;5118323;28;20197;-73
2023/10/06 11:29:59;;;;;;;6.30;5.70;;;25.40;99.90;;;;;;5117633;28;20212;-71
2023/10/06 11:32:28;;;;;;;6.20;5.57;;;25.30;99.90;;;;;;5112476;27;20201;-71
2023/10/06 11:34:56;;;;;;;5.40;4.70;;;25.40;99.90;;;;;;5099135;28;20289;-71
2023/10/06 11:37:24;;;;;;;5.20;4.70;;;25.60;99.90;;;;;;5101429;28;20668;-72
2023/10/06 11:39:52;;;;;;;5.72;5.15;;;25.80;99.90;;;;;;5106794;28;20250;-73
2023/10/06 11:42:38;;;;;;;5.55;5.03;;;25.90;99.90;;;;;;5121707;28;20222;-71
2023/10/06 11:45:11;;;;;;;5.70;5.13;;;25.80;99.90;;;;;;5099031;28;20198;-71
2023/10/06 11:47:42;;;;;;;5.50;5.00;;;25.70;99.90;;;;;;5100195;28;20689;-71
2023/10/06 11:50:21;;;;;;;5.95;5.15;;;25.80;99.90;;;;;;5098773;28;20221;-70
2023/10/06 11:52:49;;;;;;;7.07;5.35;;;25.80;99.90;;;;;;5099684;28;20204;-71
2023/10/06 11:55:33;;;;;;;5.70;5.20;;;26.00;99.90;;;;;;5100963;28;20197;-72
2023/10/06 11:58:04;;;;;;;7.00;5.07;;;26.00;99.90;;;;;;5102361;28;20201;-71
2023/10/06 12:00:49;;;;;;;6.25;5.65;;;26.00;99.90;;;;;;5101178;28;20209;-72
2023/10/06 12:03:34;;;;;;;5.50;4.95;;;25.90;99.90;;;;;;5101537;28;20224;-73
2023/10/06 12:06:01;;;;;;;5.53;4.97;;;26.00;99.90;;;;;;5099631;28;20200;-72
2023/10/06 12:08:28;;;;;;;5.90;5.35;;;26.10;99.90;;;;;;5097493;28;20812;-73
2023/10/06 12:11:03;;;;;;;6.13;5.53;;;26.30;99.90;;;;;;5099163;28;20197;-72
2023/10/06 12:13:32;;;;;;;5.95;5.32;;;26.20;99.90;;;;;;5100459;28;20564;-72
2023/10/06 12:15:59;;;;;;;6.95;5.50;;;26.20;99.90;;;;;;5098725;27;20292;-73
2023/10/06 12:18:29;;;;;;;5.82;5.30;;;26.00;99.90;;;;;;5098240;28;20217;-72
2023/10/06 12:20:56;;;;;;;5.93;5.32;;;26.00;99.90;;;;;;5099918;28;20560;-71
2023/10/06 12:23:23;;;;;;;5.68;5.18;;;25.90;99.90;;;;;;5099636;28;20280;-73
2023/10/06 12:25:50;;;;;;;5.70;5.05;;;26.00;99.90;;;;;;5100562;28;21059;-72
2023/10/06 12:28:17;;;;;;;6.25;5.65;;;26.00;99.90;;;;;;5100499;28;20189;-72
2023/10/06 12:30:45;;;;;;;5.43;4.93;;;26.10;99.90;;;;;;5103499;28;20261;-72
2023/10/06 12:33:14;;;;;;;5.50;5.00;;;26.20;99.90;;;;;;5100471;28;20257;-72
2023/10/06 12:35:41;;;;;;;5.40;4.93;;;26.10;99.90;;;;;;5099633;28;20199;-71
2023/10/06 12:38:14;;;;;;;7.05;5.55;;;26.20;99.90;;;;;;5101643;28;20197;-71
2023/10/06 12:40:41;;;;;;;6.65;5.95;;;26.10;99.90;;;;;;5099948;28;20715;-71
2023/10/06 12:43:08;;;;;;;6.05;5.53;;;26.00;99.90;;;;;;5103783;28;20204;-73
2023/10/06 12:45:36;;;;;;;9.00;5.60;;;26.10;99.90;;;;;;5098665;28;20232;-73
2023/10/06 12:48:07;;;;;;;5.68;5.18;;;26.20;99.90;;;;;;5101249;28;21045;-73
2023/10/06 12:50:40;;;;;;;6.00;5.40;;;26.20;99.90;;;;;;5099814;28;20229;-72
2023/10/06 12:53:08;;;;;;;6.18;5.57;;;26.00;99.90;;;;;;5099392;28;20695;-73
2023/10/06 12:55:35;;;;;;;6.22;5.63;;;25.80;99.90;;;;;;5100241;28;20284;-73
2023/10/06 12:58:04;;;;;;;5.25;4.78;;;25.70;99.90;;;;;;5099402;28;20276;-72
2023/10/06 13:00:30;;;;;;;7.22;5.55;;;25.70;99.90;;;;;;5101755;28;20216;-72
2023/10/06 13:02:57;;;;;;;5.70;5.20;;;25.90;99.90;;;;;;5095560;28;20248;-73
2023/10/06 13:05:26;;;;;;;6.15;5.47;;;26.00;99.90;;;;;;5097768;28;20194;-72